Time;durP1;ratioP1;P1;durP2;ratioP2;P2;SDS_P1;SDS_P2;PMS_P1;PMS_P2;Temp;Humidity;BMP_temperature;BMP_pressure;BME280_temperature;BME280_humidity;BME280_pressure;Samples;Min_cycle;Max_cycle;Signal;HPM_P1;HPM_P2
2021/01/02 00:01:02;;;;;;;44.97;35.97;;;4.30;99.90;;;;;;5053349;28;20433;-73
2021/01/02 00:03:46;;;;;;;49.87;35.00;;;4.30;99.90;;;;;;5071783;28;20190;-73
2021/01/02 00:06:31;;;;;;;44.57;35.33;;;4.20;99.90;;;;;;5070299;28;20929;-73
2021/01/02 00:09:07;;;;;;;47.77;36.70;;;4.20;99.90;;;;;;5073162;28;20456;-73
2021/01/02 00:11:53;;;;;;;49.87;35.90;;;4.20;99.90;;;;;;5053502;28;20797;-73
2021/01/02 00:14:36;;;;;;;41.27;33.97;;;4.20;99.90;;;;;;5072193;28;20445;-73
2021/01/02 00:17:18;;;;;;;43.17;33.10;;;4.30;99.90;;;;;;5055618;28;20436;-73
2021/01/02 00:19:57;;;;;;;41.23;33.83;;;4.30;99.90;;;;;;5071380;28;20461;-73
2021/01/02 00:22:39;;;;;;;45.40;33.07;;;4.30;99.90;;;;;;5071015;28;20433;-73
2021/01/02 00:25:11;;;;;;;42.97;34.37;;;4.30;99.90;;;;;;5074444;28;20441;-72
2021/01/02 00:28:01;;;;;;;41.07;33.17;;;4.30;99.90;;;;;;5070898;28;20465;-73
2021/01/02 00:30:54;;;;;;;43.30;34.03;;;4.30;99.90;;;;;;5074695;28;20436;-73
2021/01/02 00:33:56;;;;;;;40.73;32.40;;;4.30;99.90;;;;;;5053054;28;20477;-73
2021/01/02 00:36:32;;;;;;;43.27;33.33;;;4.30;99.90;;;;;;5072437;28;20431;-73
2021/01/02 00:38:58;;;;;;;44.00;33.40;;;4.40;99.90;;;;;;5070142;28;20487;-73
2021/01/02 00:41:27;;;;;;;40.20;31.20;;;4.30;99.90;;;;;;5075183;28;20974;-73
2021/01/02 00:43:53;;;;;;;40.80;31.63;;;4.30;99.90;;;;;;5070889;28;20187;-73
2021/01/02 00:46:19;;;;;;;45.97;33.97;;;4.30;99.90;;;;;;5078197;28;20469;-73
2021/01/02 00:48:47;;;;;;;40.80;32.30;;;4.30;99.90;;;;;;5074132;28;21025;-73
2021/01/02 00:51:15;;;;;;;42.53;33.03;;;4.30;99.90;;;;;;5069544;28;20444;-73
2021/01/02 00:54:03;;;;;;;42.50;32.67;;;4.30;99.90;;;;;;5072710;28;20434;-73
2021/01/02 00:56:32;;;;;;;38.40;31.30;;;4.20;99.90;;;;;;5070440;28;20816;-73
2021/01/02 00:59:32;;;;;;;38.47;31.03;;;4.20;99.90;;;;;;5071792;28;20441;-73
2021/01/02 01:02:12;;;;;;;41.40;32.70;;;4.20;99.90;;;;;;5070282;28;20448;-73
2021/01/02 01:04:50;;;;;;;43.37;31.47;;;4.20;99.90;;;;;;5071371;28;20978;-73
2021/01/02 01:07:20;;;;;;;40.67;32.63;;;4.20;99.90;;;;;;5073081;28;21056;-73
2021/01/02 01:09:50;;;;;;;38.07;31.00;;;4.10;99.90;;;;;;5051839;28;20498;-73
2021/01/02 01:12:19;;;;;;;39.93;30.37;;;4.10;99.90;;;;;;5051268;28;20891;-74
2021/01/02 01:14:46;;;;;;;41.63;33.20;;;4.10;99.90;;;;;;5071636;28;20532;-73
2021/01/02 01:17:19;;;;;;;42.30;32.70;;;4.10;99.90;;;;;;5052259;28;20445;-73
2021/01/02 01:19:49;;;;;;;40.97;31.80;;;4.10;99.90;;;;;;5066472;28;20785;-73
2021/01/02 01:22:19;;;;;;;44.63;32.70;;;4.10;99.90;;;;;;5070852;28;20792;-73
2021/01/02 01:24:54;;;;;;;40.73;30.77;;;4.10;99.90;;;;;;5069502;28;20442;-73
2021/01/02 01:27:30;;;;;;;45.63;32.70;;;4.10;99.90;;;;;;5076275;28;20472;-73
2021/01/02 01:29:58;;;;;;;38.97;29.70;;;4.10;99.90;;;;;;5069749;28;20437;-73
2021/01/02 01:32:25;;;;;;;37.50;29.73;;;4.10;99.90;;;;;;5068750;28;20444;-73
2021/01/02 01:34:59;;;;;;;40.43;28.73;;;4.20;99.90;;;;;;5069179;28;20426;-73
2021/01/02 01:37:32;;;;;;;38.20;27.50;;;4.10;99.90;;;;;;5078204;28;22695;-73
2021/01/02 01:39:59;;;;;;;35.90;29.07;;;4.10;99.90;;;;;;5069298;28;20449;-73
2021/01/02 01:42:40;;;;;;;35.23;27.00;;;4.10;99.90;;;;;;5071548;28;20445;-73
2021/01/02 01:45:38;;;;;;;35.90;27.50;;;4.10;99.90;;;;;;5051688;28;21017;-73
2021/01/02 01:48:08;;;;;;;35.13;26.97;;;4.10;99.90;;;;;;5069390;28;20834;-73
2021/01/02 01:51:08;;;;;;;33.00;26.53;;;4.10;99.90;;;;;;5069899;28;20426;-73
2021/01/02 01:53:41;;;;;;;32.87;24.70;;;4.10;99.90;;;;;;5057798;28;20526;-73
2021/01/02 01:56:16;;;;;;;30.97;26.30;;;4.10;99.90;;;;;;5057147;28;20442;-73
2021/01/02 01:59:21;;;;;;;31.10;25.67;;;4.10;99.90;;;;;;5078784;28;20432;-73
2021/01/02 02:01:55;;;;;;;35.03;26.70;;;4.10;99.90;;;;;;5066176;28;20440;-73
2021/01/02 02:04:45;;;;;;;36.20;27.50;;;4.10;99.90;;;;;;5051594;28;20429;-73
2021/01/02 02:07:16;;;;;;;31.10;25.17;;;4.10;99.90;;;;;;5074645;28;21107;-73
2021/01/02 02:09:44;;;;;;;33.40;26.13;;;4.10;99.90;;;;;;5051874;28;20474;-73
2021/01/02 02:12:21;;;;;;;30.20;25.90;;;4.20;99.90;;;;;;5069439;28;20442;-73
2021/01/02 02:15:01;;;;;;;29.47;23.50;;;4.20;99.90;;;;;;5069033;28;20445;-73
2021/01/02 02:17:37;;;;;;;31.10;24.20;;;4.10;99.90;;;;;;5050807;28;20449;-73
2021/01/02 02:20:11;;;;;;;29.43;24.70;;;4.10;99.90;;;;;;5074748;28;20479;-73
2021/01/02 02:22:39;;;;;;;28.97;25.17;;;4.10;99.90;;;;;;5069649;28;20441;-73
2021/01/02 02:25:08;;;;;;;30.20;24.30;;;4.10;99.90;;;;;;5072362;28;20441;-73
2021/01/02 02:27:39;;;;;;;25.50;22.63;;;4.10;99.90;;;;;;5071146;28;20829;-73
2021/01/02 02:30:07;;;;;;;32.50;24.47;;;4.10;99.90;;;;;;5068547;28;20478;-73
2021/01/02 02:32:38;;;;;;;26.07;23.23;;;4.10;99.90;;;;;;5069479;28;20529;-73
2021/01/02 02:35:24;;;;;;;31.33;24.83;;;4.10;99.90;;;;;;5051016;28;20445;-73
2021/01/02 02:37:53;;;;;;;30.83;23.87;;;4.10;99.90;;;;;;5074031;28;20885;-73
2021/01/02 02:40:20;;;;;;;31.07;24.50;;;4.10;99.90;;;;;;5072029;28;20540;-73
2021/01/02 02:42:54;;;;;;;25.10;21.33;;;4.10;99.90;;;;;;5069689;28;20429;-73
2021/01/02 02:45:22;;;;;;;28.17;23.60;;;4.10;99.90;;;;;;5074746;28;20469;-73
2021/01/02 02:47:51;;;;;;;32.67;23.37;;;4.10;99.90;;;;;;5072778;28;20456;-73
2021/01/02 02:50:19;;;;;;;28.07;24.40;;;4.10;99.90;;;;;;5074467;28;20425;-73
2021/01/02 02:52:51;;;;;;;32.40;25.20;;;4.10;99.90;;;;;;5073084;28;20448;-73
2021/01/02 02:55:17;;;;;;;27.43;24.03;;;4.20;99.90;;;;;;5072861;28;20595;-73
2021/01/02 02:57:48;;;;;;;30.93;24.10;;;4.20;99.90;;;;;;5073222;28;20512;-73
2021/01/02 03:00:15;;;;;;;28.80;24.97;;;4.10;99.90;;;;;;5073661;28;20187;-73
2021/01/02 03:02:44;;;;;;;27.60;24.53;;;4.10;99.90;;;;;;5054084;28;20417;-73
2021/01/02 03:05:11;;;;;;;30.50;23.93;;;4.10;99.90;;;;;;5072573;28;20499;-73
2021/01/02 03:07:45;;;;;;;27.23;23.20;;;4.10;99.90;;;;;;5077831;28;20501;-73
2021/01/02 03:10:11;;;;;;;28.90;22.97;;;4.00;99.90;;;;;;5072741;28;20441;-73
2021/01/02 03:12:45;;;;;;;28.93;23.93;;;4.10;99.90;;;;;;5074039;28;20448;-73
2021/01/02 03:15:12;;;;;;;29.30;24.80;;;4.10;99.90;;;;;;5072168;28;20868;-73
2021/01/02 03:17:39;;;;;;;30.77;26.00;;;4.00;99.90;;;;;;5072761;28;20444;-73
2021/01/02 03:20:05;;;;;;;35.40;25.47;;;4.00;99.90;;;;;;5071278;28;20468;-73
2021/01/02 03:22:31;;;;;;;28.57;24.73;;;4.00;99.90;;;;;;5074005;28;20511;-73
2021/01/02 03:24:56;;;;;;;30.90;25.33;;;4.00;99.90;;;;;;5071267;28;20937;-73
2021/01/02 03:27:22;;;;;;;32.47;26.67;;;4.00;99.90;;;;;;5059129;28;20753;-73
2021/01/02 03:29:48;;;;;;;30.10;25.53;;;4.00;99.90;;;;;;5072439;28;20223;-73
2021/01/02 03:32:14;;;;;;;34.00;26.20;;;4.00;99.90;;;;;;5072953;28;20273;-72
2021/01/02 03:34:40;;;;;;;34.07;25.77;;;4.00;99.90;;;;;;5075354;28;20440;-72
2021/01/02 03:37:07;;;;;;;33.30;26.43;;;4.00;99.90;;;;;;5074066;28;20285;-72
2021/01/02 03:39:33;;;;;;;31.40;24.67;;;4.00;99.90;;;;;;5088563;28;20436;-73
2021/01/02 03:41:59;;;;;;;32.17;25.50;;;4.00;99.90;;;;;;5072689;28;20752;-73
2021/01/02 03:44:24;;;;;;;31.23;24.80;;;4.10;99.90;;;;;;5070372;28;20452;-73
2021/01/02 03:46:50;;;;;;;32.17;24.30;;;4.10;99.90;;;;;;5055215;28;20239;-73
2021/01/02 03:49:15;;;;;;;29.67;24.63;;;4.10;99.90;;;;;;5075848;28;20291;-73
2021/01/02 03:51:40;;;;;;;29.17;24.10;;;4.10;99.90;;;;;;5073275;28;20222;-73
2021/01/02 03:54:06;;;;;;;32.57;25.87;;;4.10;99.90;;;;;;5076456;28;20188;-73
2021/01/02 03:56:31;;;;;;;29.27;24.33;;;4.10;99.90;;;;;;5070965;28;20205;-73
2021/01/02 03:58:57;;;;;;;30.93;23.90;;;4.10;99.90;;;;;;5071686;28;20305;-73
2021/01/02 04:01:23;;;;;;;30.20;24.73;;;4.10;99.90;;;;;;5071576;28;20187;-73
2021/01/02 04:03:48;;;;;;;28.20;22.50;;;4.10;99.90;;;;;;5071506;28;20187;-73
2021/01/02 04:06:14;;;;;;;29.10;24.37;;;4.10;99.90;;;;;;5072299;28;20215;-73
2021/01/02 04:08:39;;;;;;;27.97;23.37;;;4.10;99.90;;;;;;5077804;28;20183;-73
2021/01/02 04:11:05;;;;;;;29.57;24.67;;;4.10;99.90;;;;;;5071204;28;20659;-73
2021/01/02 04:13:30;;;;;;;29.00;23.50;;;4.10;99.90;;;;;;5071410;28;20531;-73
2021/01/02 04:15:56;;;;;;;29.53;24.50;;;4.10;99.90;;;;;;5070484;28;20215;-73
2021/01/02 04:18:21;;;;;;;31.50;25.43;;;4.10;99.90;;;;;;5079509;28;20183;-73
2021/01/02 04:20:48;;;;;;;29.37;22.77;;;4.10;99.90;;;;;;5074667;28;20707;-73
2021/01/02 04:23:13;;;;;;;36.33;24.13;;;4.10;99.90;;;;;;5053541;28;20215;-73
2021/01/02 04:25:39;;;;;;;30.53;25.03;;;4.10;99.90;;;;;;5053600;28;20468;-73
2021/01/02 04:28:08;;;;;;;28.83;23.90;;;4.10;99.90;;;;;;5075495;28;20199;-73
2021/01/02 04:30:33;;;;;;;28.63;24.30;;;4.10;99.90;;;;;;5070860;28;20898;-73
2021/01/02 04:32:59;;;;;;;28.63;23.63;;;4.10;99.90;;;;;;5071692;28;20524;-73
2021/01/02 04:35:25;;;;;;;27.97;22.80;;;4.10;99.90;;;;;;5070558;28;20187;-73
2021/01/02 04:37:50;;;;;;;29.07;23.83;;;4.10;99.90;;;;;;5081523;28;20191;-73
2021/01/02 04:40:15;;;;;;;24.13;20.50;;;4.10;99.90;;;;;;5070825;28;20176;-73
2021/01/02 04:42:42;;;;;;;28.63;24.50;;;4.10;99.90;;;;;;5071321;28;20196;-73
2021/01/02 04:45:09;;;;;;;26.10;23.27;;;4.10;99.90;;;;;;5070555;28;20184;-73
2021/01/02 04:47:37;;;;;;;26.07;23.03;;;4.10;99.90;;;;;;5053855;28;20466;-73
2021/01/02 04:50:07;;;;;;;26.43;21.40;;;4.10;99.90;;;;;;5053120;28;20444;-73
2021/01/02 04:52:34;;;;;;;26.47;22.83;;;4.10;99.90;;;;;;5070596;28;20876;-73
2021/01/02 04:55:03;;;;;;;25.63;21.63;;;4.10;99.90;;;;;;5070025;28;21009;-73
2021/01/02 04:57:33;;;;;;;29.33;23.20;;;4.10;99.90;;;;;;5052601;28;20479;-73
2021/01/02 05:00:01;;;;;;;23.97;21.37;;;4.10;99.90;;;;;;5069199;28;20540;-73
2021/01/02 05:02:29;;;;;;;28.27;22.73;;;4.10;99.90;;;;;;5052773;28;20442;-73
2021/01/02 05:04:54;;;;;;;33.40;23.00;;;4.10;99.90;;;;;;5071382;28;20491;-73
2021/01/02 05:07:28;;;;;;;27.83;22.57;;;4.10;99.90;;;;;;5061585;28;20857;-73
2021/01/02 05:09:54;;;;;;;31.00;23.00;;;4.10;99.90;;;;;;5052006;28;20545;-73
2021/01/02 05:12:23;;;;;;;29.50;22.00;;;4.10;99.90;;;;;;5054614;28;20442;-73
2021/01/02 05:14:59;;;;;;;27.20;22.60;;;4.10;99.90;;;;;;5070701;28;20784;-73
2021/01/02 05:17:26;;;;;;;29.70;23.77;;;4.10;99.90;;;;;;5069434;28;20841;-73
2021/01/02 05:20:07;;;;;;;26.60;22.33;;;4.10;99.90;;;;;;5079431;28;20445;-73
2021/01/02 05:22:34;;;;;;;28.10;23.47;;;4.10;99.90;;;;;;5080980;28;20475;-73
2021/01/02 05:25:08;;;;;;;26.87;22.03;;;4.10;99.90;;;;;;5070319;28;20449;-73
2021/01/02 05:27:35;;;;;;;26.60;21.60;;;4.10;99.90;;;;;;5074066;28;21049;-73
2021/01/02 05:30:20;;;;;;;25.03;22.07;;;4.10;99.90;;;;;;5068367;28;20963;-73
2021/01/02 05:32:55;;;;;;;26.50;21.97;;;4.10;99.90;;;;;;5069582;28;20434;-73
2021/01/02 05:35:21;;;;;;;27.03;22.13;;;4.00;99.90;;;;;;5077833;28;20440;-73
2021/01/02 05:37:48;;;;;;;24.43;21.80;;;4.00;99.90;;;;;;5072002;28;20432;-73
2021/01/02 05:40:31;;;;;;;26.77;21.40;;;3.90;99.90;;;;;;5069264;28;20479;-73
2021/01/02 05:42:57;;;;;;;26.17;22.00;;;3.90;99.90;;;;;;5076676;28;20524;-73
2021/01/02 05:45:27;;;;;;;25.93;21.70;;;3.90;99.90;;;;;;5070835;28;20515;-73
2021/01/02 05:47:56;;;;;;;27.40;21.53;;;3.90;99.90;;;;;;5070108;28;20354;-73
2021/01/02 05:50:23;;;;;;;26.27;20.87;;;3.90;99.90;;;;;;5070885;28;20433;-73
2021/01/02 05:52:50;;;;;;;27.80;21.87;;;3.90;99.90;;;;;;5071389;28;20444;-73
2021/01/02 05:55:30;;;;;;;26.87;21.43;;;3.80;99.90;;;;;;5070300;28;20425;-73
2021/01/02 05:57:57;;;;;;;28.63;22.77;;;3.80;99.90;;;;;;5052201;28;20452;-73
2021/01/02 06:00:23;;;;;;;31.53;24.03;;;3.80;99.90;;;;;;5074035;28;20910;-73
2021/01/02 06:02:49;;;;;;;26.07;21.63;;;3.80;99.90;;;;;;5052046;28;20660;-73
2021/01/02 06:05:15;;;;;;;24.77;19.50;;;3.80;99.90;;;;;;5056042;28;20437;-73
2021/01/02 06:07:49;;;;;;;27.30;20.60;;;3.80;99.90;;;;;;5056494;28;20222;-73
2021/01/02 06:10:14;;;;;;;28.40;21.70;;;3.80;99.90;;;;;;5069304;28;20201;-73
2021/01/02 06:12:42;;;;;;;23.90;20.60;;;3.80;99.90;;;;;;5070673;28;20452;-73
2021/01/02 06:15:11;;;;;;;27.43;20.63;;;3.70;99.90;;;;;;5070676;28;20194;-73
2021/01/02 06:17:42;;;;;;;24.47;20.03;;;3.70;99.90;;;;;;5075905;28;20440;-73
2021/01/02 06:20:12;;;;;;;26.27;20.47;;;3.60;99.90;;;;;;5052123;28;21005;-73
2021/01/02 06:22:41;;;;;;;21.97;18.40;;;3.60;99.90;;;;;;5059542;28;20516;-73
2021/01/02 06:25:08;;;;;;;24.80;19.43;;;3.60;99.90;;;;;;5068868;28;20729;-73
2021/01/02 06:27:33;;;;;;;23.83;19.63;;;3.60;99.90;;;;;;5074309;28;20467;-73
2021/01/02 06:30:00;;;;;;;24.43;19.97;;;3.70;99.90;;;;;;5067501;28;20434;-73
2021/01/02 06:32:28;;;;;;;24.77;19.87;;;3.70;99.90;;;;;;5069969;28;20183;-73
2021/01/02 06:35:06;;;;;;;25.50;21.00;;;3.70;99.90;;;;;;5078100;28;20504;-73
2021/01/02 06:38:04;;;;;;;24.93;21.70;;;3.70;99.90;;;;;;5068853;28;20796;-73
2021/01/02 06:40:36;;;;;;;25.03;20.70;;;3.70;99.90;;;;;;5071239;28;20443;-73
2021/01/02 06:43:16;;;;;;;25.50;21.57;;;3.70;99.90;;;;;;5051504;28;20942;-73
2021/01/02 06:45:49;;;;;;;28.07;21.20;;;3.70;99.90;;;;;;5068451;28;20429;-73
2021/01/02 06:48:17;;;;;;;24.70;19.50;;;3.70;99.90;;;;;;5071515;28;20440;-73
2021/01/02 06:50:54;;;;;;;28.80;22.20;;;3.70;99.90;;;;;;5057357;28;20490;-73
2021/01/02 06:53:27;;;;;;;36.27;23.87;;;3.70;99.90;;;;;;5074222;28;20937;-73
2021/01/02 06:56:00;;;;;;;29.93;22.67;;;3.70;99.90;;;;;;5051861;28;20468;-73
2021/01/02 06:58:44;;;;;;;32.90;24.27;;;3.70;99.90;;;;;;5051419;28;20429;-73
2021/01/02 07:01:29;;;;;;;28.73;22.43;;;3.70;99.90;;;;;;5050701;28;20433;-73
2021/01/02 07:03:58;;;;;;;29.30;24.00;;;3.70;99.90;;;;;;5068339;28;20429;-73
2021/01/02 07:06:24;;;;;;;28.60;24.33;;;3.70;99.90;;;;;;5068781;28;20483;-73
2021/01/02 07:09:00;;;;;;;34.37;25.20;;;3.70;99.90;;;;;;5051802;28;20438;-73
2021/01/02 07:11:43;;;;;;;32.77;25.63;;;3.70;99.90;;;;;;5067566;28;20428;-73
2021/01/02 07:14:12;;;;;;;31.47;25.33;;;3.70;99.90;;;;;;5068732;28;20829;-73
2021/01/02 07:16:51;;;;;;;31.37;23.63;;;3.70;99.90;;;;;;5069712;28;20433;-73
2021/01/02 07:19:31;;;;;;;32.10;24.83;;;3.70;99.90;;;;;;5072563;28;20853;-73
2021/01/02 07:22:06;;;;;;;29.80;23.40;;;3.70;99.90;;;;;;5068443;28;20791;-73
2021/01/02 07:24:36;;;;;;;33.20;26.90;;;3.70;99.90;;;;;;5070292;28;20954;-73
2021/01/02 07:27:04;;;;;;;32.77;25.27;;;3.70;99.90;;;;;;5069063;28;20900;-73
2021/01/02 07:29:32;;;;;;;30.90;25.13;;;3.70;99.90;;;;;;5050756;28;20436;-73
2021/01/02 07:32:09;;;;;;;34.97;26.63;;;3.70;99.90;;;;;;5053206;28;20576;-73
2021/01/02 07:34:36;;;;;;;39.73;27.03;;;3.70;99.90;;;;;;5071903;28;20421;-73
2021/01/02 07:37:06;;;;;;;31.97;24.90;;;3.70;99.90;;;;;;5056630;28;20902;-73
2021/01/02 07:39:33;;;;;;;30.00;23.93;;;3.70;99.90;;;;;;5071637;28;20412;-73
2021/01/02 07:42:03;;;;;;;29.73;25.83;;;3.70;99.90;;;;;;5072730;28;20434;-73
2021/01/02 07:44:29;;;;;;;33.17;24.53;;;3.70;99.90;;;;;;5054407;28;20430;-73
2021/01/02 07:46:55;;;;;;;32.50;24.10;;;3.70;99.90;;;;;;5072839;28;20476;-73
2021/01/02 07:49:20;;;;;;;31.03;24.30;;;3.80;99.90;;;;;;5078296;28;20524;-73
2021/01/02 07:51:50;;;;;;;31.50;24.00;;;3.80;99.90;;;;;;5074889;28;20203;-73
2021/01/02 07:54:35;;;;;;;33.40;24.40;;;3.80;99.90;;;;;;5053850;28;20434;-73
2021/01/02 07:57:03;;;;;;;27.50;22.57;;;3.80;99.90;;;;;;5074248;28;20539;-73
2021/01/02 07:59:30;;;;;;;28.73;23.33;;;3.80;99.90;;;;;;5055746;28;20977;-73
2021/01/02 08:01:58;;;;;;;28.90;23.20;;;3.80;99.90;;;;;;5072385;28;20422;-73
2021/01/02 08:04:25;;;;;;;27.63;23.53;;;3.80;99.90;;;;;;5075807;28;20470;-73
2021/01/02 08:06:53;;;;;;;30.73;23.43;;;3.80;99.90;;;;;;5073630;28;20948;-73
2021/01/02 08:09:19;;;;;;;31.93;24.33;;;3.80;99.90;;;;;;5071796;28;20493;-73
2021/01/02 08:11:50;;;;;;;28.17;24.97;;;3.80;99.90;;;;;;5070977;28;20531;-73
2021/01/02 08:14:16;;;;;;;27.47;23.47;;;3.80;99.90;;;;;;5055391;28;20188;-73
2021/01/02 08:16:58;;;;;;;26.97;22.83;;;3.90;99.90;;;;;;5059238;28;20981;-73
2021/01/02 08:19:24;;;;;;;32.33;24.87;;;3.90;99.90;;;;;;5075259;28;20248;-73
2021/01/02 08:21:51;;;;;;;29.67;22.97;;;3.90;99.90;;;;;;5073188;28;20437;-73
2021/01/02 08:24:18;;;;;;;30.30;23.20;;;3.90;99.90;;;;;;5070977;28;20434;-73
2021/01/02 08:26:44;;;;;;;30.90;24.30;;;3.90;99.90;;;;;;5072744;28;20468;-73
2021/01/02 08:29:10;;;;;;;28.77;22.50;;;4.00;99.90;;;;;;5073459;28;20441;-73
2021/01/02 08:31:38;;;;;;;30.67;24.47;;;3.90;99.90;;;;;;5071710;28;20301;-73
2021/01/02 08:34:05;;;;;;;31.40;24.90;;;4.00;99.90;;;;;;5071509;28;20188;-73
2021/01/02 08:36:30;;;;;;;28.03;23.33;;;4.00;99.90;;;;;;5075375;28;20643;-73
2021/01/02 08:39:05;;;;;;;34.67;25.53;;;4.10;99.90;;;;;;5064830;28;20796;-73
2021/01/02 08:41:32;;;;;;;31.23;24.33;;;4.10;99.90;;;;;;5072799;28;20187;-73
2021/01/02 08:43:58;;;;;;;30.47;23.37;;;4.10;99.90;;;;;;5073560;28;20499;-73
2021/01/02 08:46:23;;;;;;;30.70;24.00;;;4.10;99.90;;;;;;5070694;28;21017;-73
2021/01/02 08:48:50;;;;;;;32.30;25.73;;;4.20;99.90;;;;;;5071442;28;20433;-73
2021/01/02 08:51:26;;;;;;;28.63;21.93;;;4.20;99.90;;;;;;5057046;28;20589;-73
2021/01/02 08:53:52;;;;;;;29.30;23.10;;;4.20;99.90;;;;;;5071562;28;20495;-73
2021/01/02 08:56:26;;;;;;;26.87;22.40;;;4.30;99.90;;;;;;5071213;28;20430;-73
2021/01/02 08:58:52;;;;;;;26.90;22.20;;;4.30;99.90;;;;;;5072601;28;20441;-73
2021/01/02 09:01:18;;;;;;;30.10;24.37;;;4.40;99.90;;;;;;5071648;28;20466;-73
2021/01/02 09:03:44;;;;;;;28.33;22.70;;;4.40;99.90;;;;;;5078899;28;20483;-73
2021/01/02 09:06:20;;;;;;;27.60;23.33;;;4.40;99.90;;;;;;5074579;28;20687;-73
2021/01/02 09:08:58;;;;;;;29.50;23.87;;;4.50;99.90;;;;;;5075938;28;20191;-73
2021/01/02 09:11:23;;;;;;;29.33;22.10;;;4.60;99.90;;;;;;5062016;28;20437;-73
2021/01/02 09:13:49;;;;;;;26.60;21.60;;;4.60;99.90;;;;;;5076204;28;20438;-73
2021/01/02 09:16:15;;;;;;;29.50;23.17;;;4.70;99.90;;;;;;5069351;28;20597;-73
2021/01/02 09:18:42;;;;;;;30.30;21.40;;;4.70;99.90;;;;;;5078043;28;20179;-73
2021/01/02 09:21:10;;;;;;;23.67;20.60;;;4.60;99.90;;;;;;5060882;28;20473;-73
2021/01/02 09:23:38;;;;;;;31.90;21.57;;;4.60;99.90;;;;;;5052723;28;20429;-73
2021/01/02 09:26:18;;;;;;;30.13;24.00;;;4.70;99.90;;;;;;5072485;28;20540;-73
2021/01/02 09:28:44;;;;;;;31.80;22.33;;;4.70;99.90;;;;;;5052295;28;20485;-73
2021/01/02 09:31:10;;;;;;;27.30;21.73;;;4.80;99.90;;;;;;5070762;28;21018;-73
2021/01/02 09:33:35;;;;;;;26.57;21.10;;;4.80;99.90;;;;;;5069741;28;20537;-73
2021/01/02 09:36:01;;;;;;;24.50;20.23;;;4.80;99.90;;;;;;5054654;28;20221;-73
2021/01/02 09:38:26;;;;;;;27.33;22.03;;;4.90;99.90;;;;;;5072449;28;20201;-73
2021/01/02 09:40:52;;;;;;;27.67;21.43;;;4.90;99.90;;;;;;5070700;28;20192;-73
2021/01/02 09:43:18;;;;;;;26.50;21.70;;;4.90;99.90;;;;;;5070983;28;20648;-73
2021/01/02 09:45:44;;;;;;;28.63;21.40;;;4.90;99.90;;;;;;5077799;28;20436;-73
2021/01/02 09:48:11;;;;;;;28.17;21.17;;;4.90;99.90;;;;;;5074162;28;20192;-73
2021/01/02 09:50:39;;;;;;;28.70;22.77;;;5.00;99.90;;;;;;5068589;28;20190;-73
2021/01/02 09:53:04;;;;;;;24.27;19.67;;;5.00;99.90;;;;;;5080269;28;20520;-73
2021/01/02 09:55:30;;;;;;;27.30;21.40;;;5.10;99.90;;;;;;5068177;28;20508;-73
2021/01/02 09:57:56;;;;;;;26.77;21.50;;;5.10;99.90;;;;;;5070113;28;20718;-73
2021/01/02 10:00:22;;;;;;;25.80;21.67;;;5.10;99.90;;;;;;5070521;28;20265;-73
2021/01/02 10:02:48;;;;;;;26.40;21.87;;;5.20;99.90;;;;;;5073870;28;20241;-73
2021/01/02 10:05:19;;;;;;;28.13;23.10;;;5.20;99.90;;;;;;5051186;28;20433;-73
2021/01/02 10:07:45;;;;;;;26.57;21.17;;;5.30;99.90;;;;;;5080145;28;20478;-73
2021/01/02 10:10:11;;;;;;;24.33;20.60;;;5.40;99.90;;;;;;5071282;28;20929;-73
2021/01/02 10:12:39;;;;;;;24.40;19.53;;;5.40;99.90;;;;;;5051439;28;20195;-73
2021/01/02 10:15:05;;;;;;;26.17;19.23;;;5.30;99.90;;;;;;5050502;28;20506;-73
2021/01/02 10:17:31;;;;;;;23.60;19.80;;;5.30;99.90;;;;;;5070862;28;20444;-73
2021/01/02 10:19:57;;;;;;;24.23;19.73;;;5.40;99.90;;;;;;5070644;28;20858;-73
2021/01/02 10:22:23;;;;;;;24.17;21.00;;;5.40;99.90;;;;;;5060085;28;20541;-73
2021/01/02 10:24:52;;;;;;;22.53;19.10;;;5.40;99.90;;;;;;5077352;28;20463;-73
2021/01/02 10:27:18;;;;;;;24.57;19.10;;;5.30;99.90;;;;;;5059294;28;20497;-73
2021/01/02 10:29:46;;;;;;;20.87;17.63;;;5.30;99.90;;;;;;5073283;28;21036;-73
2021/01/02 10:32:13;;;;;;;22.27;18.10;;;5.30;99.90;;;;;;5052123;28;21064;-73
2021/01/02 10:34:39;;;;;;;21.27;18.23;;;5.30;99.90;;;;;;5051819;28;20809;-73
2021/01/02 10:37:05;;;;;;;22.47;19.10;;;5.40;99.90;;;;;;5064329;28;20433;-73
2021/01/02 10:39:31;;;;;;;21.90;18.10;;;5.40;99.90;;;;;;5052538;28;20976;-73
2021/01/02 10:41:56;;;;;;;21.33;18.07;;;5.40;99.90;;;;;;5072134;28;20184;-73
2021/01/02 10:44:22;;;;;;;26.87;18.13;;;5.40;99.90;;;;;;5070528;28;20180;-73
2021/01/02 10:46:49;;;;;;;25.63;19.13;;;5.50;99.90;;;;;;5070325;28;20215;-73
2021/01/02 10:49:17;;;;;;;21.50;18.83;;;5.60;99.90;;;;;;5069149;28;20191;-73
2021/01/02 10:51:42;;;;;;;21.93;17.10;;;5.60;99.90;;;;;;5070346;28;20518;-73
2021/01/02 10:54:09;;;;;;;25.77;19.70;;;5.60;99.90;;;;;;5068664;28;22325;-73
2021/01/02 10:56:35;;;;;;;26.27;20.30;;;5.70;99.90;;;;;;5068731;28;20192;-73
2021/01/02 10:59:02;;;;;;;22.30;18.50;;;5.70;99.90;;;;;;5068650;28;20438;-73
2021/01/02 11:01:28;;;;;;;22.73;17.20;;;5.70;99.90;;;;;;5069359;28;20962;-73
2021/01/02 11:03:53;;;;;;;21.57;17.67;;;5.80;99.90;;;;;;5054298;28;20565;-73
2021/01/02 11:06:19;;;;;;;18.30;16.30;;;5.80;99.90;;;;;;5075397;28;20667;-73
2021/01/02 11:08:46;;;;;;;21.43;17.60;;;5.80;99.90;;;;;;5058722;28;20631;-73
2021/01/02 11:11:21;;;;;;;25.33;18.17;;;5.80;99.90;;;;;;5074069;28;20428;-73
2021/01/02 11:13:47;;;;;;;20.77;17.73;;;5.80;99.90;;;;;;5072973;28;20466;-73
2021/01/02 11:16:13;;;;;;;20.60;18.13;;;5.80;99.90;;;;;;5074646;28;20434;-73
2021/01/02 11:18:38;;;;;;;20.77;17.60;;;5.80;99.90;;;;;;5083171;28;20180;-73
2021/01/02 11:21:08;;;;;;;21.10;16.50;;;5.80;99.90;;;;;;5073579;28;20622;-73
2021/01/02 11:23:34;;;;;;;21.80;17.67;;;5.80;99.90;;;;;;5071661;28;20908;-73
2021/01/02 11:25:59;;;;;;;19.73;17.67;;;5.80;99.90;;;;;;5072369;28;20629;-73
2021/01/02 11:28:25;;;;;;;21.13;17.40;;;5.80;99.90;;;;;;5060407;28;20200;-73
2021/01/02 11:30:50;;;;;;;21.03;17.63;;;5.70;99.90;;;;;;5072150;28;21056;-73
2021/01/02 11:33:16;;;;;;;25.43;19.60;;;5.70;99.90;;;;;;5072986;28;20200;-73
2021/01/02 11:35:41;;;;;;;20.30;18.00;;;5.80;99.90;;;;;;5073911;28;20187;-73
2021/01/02 11:38:07;;;;;;;21.20;17.70;;;5.80;99.90;;;;;;5074780;28;20184;-73
2021/01/02 11:40:32;;;;;;;22.07;17.83;;;5.90;99.90;;;;;;5071404;28;20628;-73
2021/01/02 11:42:58;;;;;;;20.53;17.60;;;5.90;99.90;;;;;;5072441;28;20240;-73
2021/01/02 11:45:24;;;;;;;22.63;18.07;;;5.90;99.90;;;;;;5072929;28;20196;-73
2021/01/02 11:47:51;;;;;;;19.17;16.50;;;5.90;99.90;;;;;;5072569;28;20477;-73
2021/01/02 11:50:17;;;;;;;22.63;18.00;;;5.90;99.90;;;;;;5054837;28;20272;-73
2021/01/02 11:52:42;;;;;;;23.87;17.60;;;5.90;99.90;;;;;;5062261;28;20433;-73
2021/01/02 11:55:08;;;;;;;21.33;16.60;;;5.90;99.90;;;;;;5072700;28;20430;-73
2021/01/02 11:57:35;;;;;;;18.43;16.40;;;5.90;99.90;;;;;;5070851;28;20200;-73
2021/01/02 12:00:02;;;;;;;20.43;17.23;;;5.80;99.90;;;;;;5074220;28;20685;-73
2021/01/02 12:02:27;;;;;;;20.43;16.07;;;5.70;99.90;;;;;;5071884;28;20805;-73
2021/01/02 12:04:54;;;;;;;23.60;18.77;;;5.80;99.90;;;;;;5054503;28;20437;-73
2021/01/02 12:07:19;;;;;;;20.87;16.60;;;5.80;99.90;;;;;;5071744;28;20539;-73
2021/01/02 12:09:45;;;;;;;23.60;17.20;;;5.90;99.90;;;;;;5072488;28;20437;-73
2021/01/02 12:12:10;;;;;;;19.93;17.53;;;5.90;99.90;;;;;;5071058;28;20214;-73
2021/01/02 12:14:36;;;;;;;22.90;17.23;;;5.90;99.90;;;;;;5071484;28;20621;-73
2021/01/02 12:17:08;;;;;;;22.80;17.87;;;6.00;99.90;;;;;;5070888;28;20188;-73
2021/01/02 12:19:33;;;;;;;20.13;17.70;;;6.00;99.90;;;;;;5072344;28;20465;-73
2021/01/02 12:22:02;;;;;;;20.00;16.03;;;6.10;99.90;;;;;;5065492;28;20778;-73
2021/01/02 12:24:29;;;;;;;18.83;16.83;;;6.00;99.90;;;;;;5071382;28;20849;-73
2021/01/02 12:27:00;;;;;;;22.33;18.23;;;6.00;99.90;;;;;;5072208;28;20803;-73
2021/01/02 12:29:27;;;;;;;19.07;16.90;;;6.00;99.90;;;;;;5052760;28;21010;-73
2021/01/02 12:31:56;;;;;;;25.03;18.37;;;5.90;99.90;;;;;;5053367;28;21210;-73
2021/01/02 12:34:25;;;;;;;20.77;17.53;;;5.90;99.90;;;;;;5053464;28;20437;-73
2021/01/02 12:36:52;;;;;;;22.17;18.83;;;5.90;99.90;;;;;;5056745;28;20441;-73
2021/01/02 12:39:24;;;;;;;23.40;19.10;;;5.80;99.90;;;;;;5052984;28;20446;-73
2021/01/02 12:41:51;;;;;;;23.47;18.57;;;5.70;99.90;;;;;;5070433;28;20523;-73
2021/01/02 12:44:17;;;;;;;23.73;19.43;;;5.70;99.90;;;;;;5070243;28;20449;-73
2021/01/02 12:46:48;;;;;;;24.93;19.40;;;5.70;99.90;;;;;;5057655;28;20480;-73
2021/01/02 12:49:16;;;;;;;26.13;20.37;;;5.70;99.90;;;;;;5072854;28;20950;-73